Terminal Aerodrome Forecast
Issued by NWS Mt. Holly, NJ

Home | Current Version | Previous Version | Text Only | Print | Product List | Glossary On
Versions: 1 2 3 4 5 6 7 8 9 10 11 12 13 14 15 16 17
000
FTUS41 KPHI 272339
TAFRDG
TAF
KRDG 272339Z 2800/2824 28011KT P6SM VCSH SCT070 BKN120
     FM280100 29006KT P6SM SCT120
     FM282300 24006KT P6SM FEW250=

USA.gov is the U.S. government's official web portal to all federal, state and local government web resources and services.